WARRWADD

Guest
Details From WARR - Surabaya Juanda
To WADD - Denpasar Ngurah Rai Intl
Flight Number -
Tags Generated
Created
Modified
Stats Distance 164 nm / 303 km
Max Altitude 0 ft / 0 m
Waypoints 2
Social Downloads 5
Likes 0
Share VATSIM

Download

Looking for another format? Having issues loading an existing format? Contact us
Advertisement - Login to hide

Notes

Generated

Route

WARR WADD

ID Type Via Altitude Latitude Longitude Leg Dist Tot Dist Heading (true) Name
O WARR APT - 0 ft / 0 m -7.37765˚ 112.77345˚ - 0 nm - -
O WADD APT - 0 ft / 0 m -8.74871˚ 115.15363˚ 163 nm 163 nm 120° / 120° -

Altitude Profile

Advertisement - Login to hide

Weather


0- 5 10 15 20 25 30 35+ Temperature / ° C

Clouds and Precipitation
Forecast for 2017-12-12 18:00 UTC. Updated an hour ago

Ground ~20,000 ft ~40,000 ft Winds

WARR

Details ICAO WARR (SUB)
Name Surabaya Juanda
Region Indonesia
Timezone Asia/Jakarta (UTC+7.0)
Stats Elevation 9 ft / 3 m (AMSL)
Location -7.379832° 112.786858°
Runways 1
Magnetic Variation 0.953° E

METAR

Not found

TAF

TAF WARR 121100Z 1212/1312 26010KT 7000 SCT018CB TEMPO 1212/1215 2000 TSRA BKN018CB BECMG 1215/1217 28005KT 5000 HZ SCT020 BECMG 1300/1302 15010KT 9000 NSW TEMPO 1308/1312 32010G25KT 2000 TSRA BKN018CB

Decode

Departure Runways

ID Width Length Bearing (true) Bearing (mag) Surface Threshold Offset Overrun Length
10 148 ft / 45 m 9,836 ft / 2,998 m 99.32° 98.37° Asphalt 0 ft / 0 m 328 ft / 100 m
28 148 ft / 45 m 9,836 ft / 2,998 m 279.32° 278.37° Asphalt 0 ft / 0 m 328 ft / 100 m

WADD

Details ICAO WADD (DPS)
Name Denpasar Ngurah Rai Intl
Region Indonesia
Timezone Asia/Makassar (UTC+8.0)
Stats Elevation 14 ft / 4 m (AMSL)
Location -8.748169° 115.167174°
Runways 1
Magnetic Variation 1.056° E

METAR

WADD 121800Z 29007KT 260V320 5000 -RA FEW013CB BKN014 27/25 Q1009 TEMPO TL1900 4000 RA RMK CB IN CLIMB OUT

Decode

TAF

TAF AMD TAF AMD WADD 121710Z 1218/1318 VRB05KT 9999 SCT016 TEMPO 1218/1222 5000 TSRA FEW013CB BKN013 BECMG 1223/1301 26010KT

Decode

Destination Runways

ID Width Length Bearing (true) Bearing (mag) Surface Threshold Offset Overrun Length
09 148 ft / 45 m 9,779 ft / 2,981 m 87.71° 86.65° Asphalt 121 ft / 37 m 75 ft / 23 m
27 148 ft / 45 m 9,779 ft / 2,981 m 267.70° 266.64° Asphalt 0 ft / 0 m 197 ft / 60 m

Approach Navaids

Runway Type Ident Frequency Range Bearing (true) Bearing (mag) Slope Elevation
27 Localiser IDPS 110.30 MHz 18 nm / 33 km 267.70° 266.65° - 10 ft / 3 m (AMSL)
27 Glidescope IDPS 110.30 MHz 10 nm / 19 km 267.70° 266.65° 3.00° 12 ft / 4 m (AMSL)
27 DME IDPS 110.30 MHz 18 nm / 33 km - - - 14 ft / 4 m (AMSL)

Popular Alternatives